Time;durP1;ratioP1;P1;durP2;ratioP2;P2;SDS_P1;SDS_P2;PMS_P1;PMS_P2;Temp;Humidity;BMP_temperature;BMP_pressure;BME280_temperature;BME280_humidity;BME280_pressure;Samples;Min_cycle;Max_cycle;Signal;HPM_P1;HPM_P2
2021/03/20 00:00:37;;;;;;;10.33;6.67;;;-2.70;78.50;;;;;;4998706;28;20231;-80
2021/03/20 00:03:08;;;;;;;11.27;6.43;;;-2.80;78.10;;;;;;5016515;28;20193;-80
2021/03/20 00:05:41;;;;;;;11.30;6.17;;;-2.80;78.10;;;;;;5016189;28;20253;-80
2021/03/20 00:08:17;;;;;;;9.60;5.87;;;-2.80;78.20;;;;;;5016116;28;20250;-80
2021/03/20 00:10:48;;;;;;;11.17;6.23;;;-2.80;78.70;;;;;;5016308;28;20173;-80
2021/03/20 00:13:18;;;;;;;10.47;5.03;;;-2.80;78.60;;;;;;5016377;28;20177;-80
2021/03/20 00:15:44;;;;;;;12.10;5.27;;;-2.80;78.40;;;;;;5016024;28;20181;-80
2021/03/20 00:18:14;;;;;;;9.13;5.03;;;-2.80;78.40;;;;;;5016225;28;20170;-79
2021/03/20 00:20:42;;;;;;;8.90;4.53;;;-2.80;78.30;;;;;;5016124;28;20178;-78
2021/03/20 00:23:13;;;;;;;13.87;6.30;;;-2.80;78.50;;;;;;5015768;28;20197;-79
2021/03/20 00:25:44;;;;;;;6.70;4.73;;;-2.70;79.10;;;;;;5016217;28;20170;-80
2021/03/20 00:28:14;;;;;;;7.60;4.33;;;-2.70;78.70;;;;;;5015776;28;20201;-80
2021/03/20 00:30:48;;;;;;;5.97;4.10;;;-2.80;78.70;;;;;;5016430;28;20695;-79
2021/03/20 00:33:15;;;;;;;4.00;3.57;;;-2.80;78.50;;;;;;5015743;28;20177;-79
2021/03/20 00:35:41;;;;;;;6.27;4.30;;;-2.80;78.30;;;;;;5016115;28;20173;-80
2021/03/20 00:38:13;;;;;;;9.97;4.87;;;-2.80;78.10;;;;;;5015606;28;20187;-80
2021/03/20 00:40:47;;;;;;;6.10;3.83;;;-2.90;77.90;;;;;;5015698;28;20177;-80
2021/03/20 00:43:16;;;;;;;10.67;4.03;;;-2.90;77.70;;;;;;5015682;28;20668;-80
2021/03/20 00:45:43;;;;;;;9.80;4.40;;;-2.90;77.30;;;;;;4998290;28;20173;-79
2021/03/20 00:48:22;;;;;;;8.97;4.07;;;-2.90;77.00;;;;;;5015495;28;20173;-79
2021/03/20 00:50:48;;;;;;;5.97;4.13;;;-2.90;76.70;;;;;;4997849;28;20653;-79
2021/03/20 00:53:22;;;;;;;7.60;3.80;;;-2.90;76.80;;;;;;5015492;28;20196;-79
2021/03/20 00:55:53;;;;;;;9.00;4.03;;;-3.00;77.00;;;;;;5015572;28;20161;-79
2021/03/20 00:58:41;;;;;;;10.87;4.10;;;-2.90;78.40;;;;;;5015493;28;20213;-79
2021/03/20 01:01:16;;;;;;;8.37;4.27;;;-2.90;78.90;;;;;;5014585;28;20523;-79
2021/03/20 01:03:48;;;;;;;7.57;4.00;;;-2.80;79.00;;;;;;4997402;28;20575;-79
2021/03/20 01:06:27;;;;;;;7.80;3.73;;;-2.70;79.40;;;;;;5015108;28;20642;-79
2021/03/20 01:08:56;;;;;;;6.83;4.00;;;-2.70;79.30;;;;;;5015273;28;20564;-79
2021/03/20 01:11:30;;;;;;;5.13;3.63;;;-2.80;78.90;;;;;;5015061;28;20177;-79
2021/03/20 01:14:02;;;;;;;6.73;3.80;;;-2.80;80.60;;;;;;5015246;28;20180;-81
2021/03/20 01:16:34;;;;;;;6.00;3.70;;;-2.70;81.10;;;;;;5014864;28;20184;-80
2021/03/20 01:19:03;;;;;;;5.23;3.93;;;-2.70;81.80;;;;;;5015050;28;20206;-82
2021/03/20 01:21:29;;;;;;;8.60;4.47;;;-2.70;81.60;;;;;;5015172;28;20185;-79
2021/03/20 01:23:58;;;;;;;9.50;5.03;;;-2.70;81.10;;;;;;5014849;28;20666;-80
2021/03/20 01:26:32;;;;;;;7.70;3.80;;;-2.60;81.70;;;;;;5015735;28;20228;-80
2021/03/20 01:29:00;;;;;;;6.37;3.70;;;-2.70;82.00;;;;;;5014672;28;20384;-80
2021/03/20 01:31:30;;;;;;;6.20;2.77;;;-2.70;82.00;;;;;;5014920;28;20166;-80
2021/03/20 01:33:56;;;;;;;5.20;3.00;;;-2.80;81.70;;;;;;5014934;28;20605;-79
2021/03/20 01:36:26;;;;;;;7.17;3.30;;;-2.80;81.50;;;;;;5014568;28;20177;-79
2021/03/20 01:38:52;;;;;;;4.73;3.27;;;-2.80;81.30;;;;;;5014507;28;20232;-80
2021/03/20 01:41:23;;;;;;;8.57;3.23;;;-2.80;81.50;;;;;;5014874;28;20261;-79
2021/03/20 01:43:52;;;;;;;7.47;3.17;;;-2.90;81.10;;;;;;5014436;28;20234;-79
2021/03/20 01:46:38;;;;;;;5.97;3.07;;;-2.90;80.70;;;;;;4997003;28;20645;-79
2021/03/20 01:49:24;;;;;;;4.87;2.90;;;-3.00;80.60;;;;;;5014118;28;20615;-79
2021/03/20 01:51:59;;;;;;;7.07;3.30;;;-3.00;80.50;;;;;;4996459;28;20615;-79
2021/03/20 01:54:40;;;;;;;5.47;3.53;;;-3.10;80.40;;;;;;5014605;28;20169;-80
2021/03/20 01:57:13;;;;;;;7.03;3.20;;;-3.10;80.80;;;;;;4997053;28;20177;-79
2021/03/20 01:59:49;;;;;;;7.67;4.00;;;-3.10;81.00;;;;;;5014018;28;20251;-79
2021/03/20 02:02:22;;;;;;;15.90;3.37;;;-3.10;81.00;;;;;;4996602;28;20205;-81
2021/03/20 02:04:54;;;;;;;7.07;3.23;;;-3.10;81.40;;;;;;4996434;28;20201;-81
2021/03/20 02:07:27;;;;;;;8.17;3.83;;;-2.90;82.50;;;;;;5014142;28;20180;-80
2021/03/20 02:10:02;;;;;;;5.53;3.20;;;-2.80;83.30;;;;;;5014131;28;20189;-80
2021/03/20 02:12:33;;;;;;;8.47;4.50;;;-2.80;83.30;;;;;;5014066;28;20154;-81
2021/03/20 02:15:18;;;;;;;6.97;3.43;;;-2.70;83.50;;;;;;5014083;28;20192;-80
2021/03/20 02:18:03;;;;;;;5.37;3.83;;;-2.70;83.60;;;;;;5014547;28;20184;-80
2021/03/20 02:20:54;;;;;;;4.97;3.63;;;-2.80;83.10;;;;;;5013149;28;20181;-81
2021/03/20 02:23:36;;;;;;;8.23;4.03;;;-2.80;82.80;;;;;;5013654;28;20193;-81
2021/03/20 02:26:14;;;;;;;4.77;3.60;;;-2.80;82.70;;;;;;5013986;28;20238;-81
2021/03/20 02:29:17;;;;;;;4.93;3.13;;;-2.90;82.40;;;;;;5013671;28;20192;-81
2021/03/20 02:32:14;;;;;;;8.13;3.97;;;-3.00;81.90;;;;;;4996163;28;20176;-80
2021/03/20 02:35:08;;;;;;;6.60;3.20;;;-3.00;82.60;;;;;;4995956;28;20208;-80
2021/03/20 02:38:17;;;;;;;4.47;2.97;;;-3.00;82.60;;;;;;5013582;28;20177;-80
2021/03/20 02:41:06;;;;;;;6.77;3.00;;;-3.00;82.40;;;;;;5013594;28;20174;-80
2021/03/20 02:43:57;;;;;;;10.63;3.37;;;-3.00;82.30;;;;;;5013391;28;20200;-81
2021/03/20 02:46:44;;;;;;;5.73;3.70;;;-3.10;82.20;;;;;;5013756;28;20164;-80
2021/03/20 02:49:45;;;;;;;5.93;2.90;;;-2.90;83.50;;;;;;5013666;28;20241;-80
2021/03/20 02:52:30;;;;;;;4.57;2.43;;;-2.90;83.20;;;;;;5013672;28;20518;-80
2021/03/20 02:55:12;;;;;;;11.07;2.97;;;-2.90;82.80;;;;;;5013800;28;20153;-80
2021/03/20 02:57:54;;;;;;;3.77;2.83;;;-2.90;82.40;;;;;;4995695;28;20196;-80
2021/03/20 03:00:31;;;;;;;5.10;3.63;;;-2.90;82.20;;;;;;4995483;28;20600;-80
2021/03/20 03:03:02;;;;;;;8.03;3.50;;;-2.90;82.80;;;;;;4995647;28;20205;-81
2021/03/20 03:05:42;;;;;;;4.60;3.20;;;-2.60;83.30;;;;;;5013566;28;20169;-79
2021/03/20 03:08:27;;;;;;;8.37;2.50;;;-2.60;82.90;;;;;;5013214;28;20215;-79
2021/03/20 03:11:13;;;;;;;10.90;3.30;;;-2.70;82.70;;;;;;4995780;28;20264;-80
2021/03/20 03:13:48;;;;;;;6.50;3.37;;;-2.60;82.70;;;;;;4995665;28;20243;-80
2021/03/20 03:16:31;;;;;;;6.87;3.03;;;-2.60;82.50;;;;;;5013751;28;20539;-80
2021/03/20 03:19:03;;;;;;;7.37;3.23;;;-2.40;82.60;;;;;;5013163;28;20255;-79
2021/03/20 03:21:38;;;;;;;10.57;3.67;;;-2.40;82.50;;;;;;5013149;28;20232;-80
2021/03/20 03:24:11;;;;;;;5.00;3.23;;;-2.40;82.40;;;;;;4996383;28;20224;-79
2021/03/20 03:26:46;;;;;;;7.23;3.00;;;-2.40;82.50;;;;;;5017100;28;20150;-79
2021/03/20 03:29:27;;;;;;;5.87;3.57;;;-2.40;82.20;;;;;;5017062;28;20196;-80
2021/03/20 03:32:14;;;;;;;5.47;2.90;;;-2.20;82.60;;;;;;5017068;28;20177;-79
2021/03/20 03:34:54;;;;;;;7.10;3.10;;;-2.10;82.50;;;;;;5016906;28;20586;-79
2021/03/20 03:37:50;;;;;;;5.80;2.90;;;-2.00;81.60;;;;;;5015819;28;20165;-81
2021/03/20 03:40:32;;;;;;;3.20;2.77;;;-1.70;80.20;;;;;;5016700;28;20208;-80
2021/03/20 03:42:58;;;;;;;5.50;2.97;;;-1.80;80.10;;;;;;5016657;28;20197;-80
2021/03/20 03:45:29;;;;;;;6.23;3.23;;;-1.60;79.20;;;;;;4999150;28;20177;-80
2021/03/20 03:48:01;;;;;;;7.27;3.23;;;-1.50;79.00;;;;;;5016721;28;20175;-80
2021/03/20 03:50:35;;;;;;;8.87;3.40;;;-1.60;78.70;;;;;;4999109;28;20185;-79
2021/03/20 03:53:12;;;;;;;6.27;3.53;;;-1.50;78.30;;;;;;4999188;28;20176;-80
2021/03/20 03:55:43;;;;;;;4.40;2.83;;;-1.40;78.10;;;;;;5016536;28;20173;-81
2021/03/20 04:00:59;;;;;;;5.90;2.90;;;-1.40;78.20;;;;;;5075397;23;20263;-86
2021/03/20 04:03:59;;;;;;;3.63;2.90;;;-1.40;78.60;;;;;;5038269;28;20204;-86
2021/03/20 04:07:27;;;;;;;5.30;2.83;;;-1.40;78.30;;;;;;5037684;28;20183;-86
2021/03/20 04:10:15;;;;;;;5.73;3.20;;;-1.30;78.20;;;;;;5016281;28;20577;-86
2021/03/20 04:13:00;;;;;;;8.33;3.40;;;-1.30;77.40;;;;;;5037685;28;20175;-86
2021/03/20 04:16:06;;;;;;;6.13;2.97;;;-1.30;77.40;;;;;;5055634;28;20180;-86
2021/03/20 04:19:09;;;;;;;4.87;2.73;;;-1.30;77.90;;;;;;5037991;28;20574;-87
2021/03/20 04:21:50;;;;;;;7.63;2.97;;;-1.20;77.50;;;;;;4988022;28;20207;-86
2021/03/20 04:24:32;;;;;;;6.87;3.00;;;-1.20;77.60;;;;;;5037617;28;20747;-87
2021/03/20 04:27:16;;;;;;;9.33;3.23;;;-1.20;78.10;;;;;;5037404;28;20261;-87
2021/03/20 04:30:08;;;;;;;5.43;2.80;;;-1.10;77.70;;;;;;5055145;28;20188;-86
2021/03/20 04:32:47;;;;;;;6.10;2.70;;;-1.10;78.20;;;;;;5055480;28;20555;-86
2021/03/20 04:35:32;;;;;;;4.53;2.60;;;-1.10;78.40;;;;;;5036576;28;20172;-87
2021/03/20 04:38:04;;;;;;;6.07;2.83;;;-1.00;78.60;;;;;;5055087;28;20247;-86
2021/03/20 04:41:01;;;;;;;7.50;2.60;;;-1.00;78.10;;;;;;5054908;28;20241;-86
2021/03/20 04:43:35;;;;;;;8.20;3.33;;;-1.00;77.60;;;;;;5054912;28;20192;-86
2021/03/20 04:46:13;;;;;;;5.07;2.57;;;-1.00;77.50;;;;;;5055334;28;20547;-86
2021/03/20 04:48:47;;;;;;;4.70;2.20;;;-1.00;77.60;;;;;;5054849;28;20216;-86
2021/03/20 04:51:40;;;;;;;4.60;2.20;;;-0.90;76.60;;;;;;5037256;28;20562;-86
2021/03/20 04:54:18;;;;;;;5.80;2.33;;;-0.90;77.10;;;;;;5036888;28;20632;-86
2021/03/20 04:57:21;;;;;;;4.40;2.27;;;-0.90;77.20;;;;;;5054808;28;20167;-86
2021/03/20 05:00:06;;;;;;;9.80;2.77;;;-0.90;76.60;;;;;;5054594;28;20239;-86
2021/03/20 05:02:58;;;;;;;4.80;2.50;;;-0.90;76.60;;;;;;5054609;28;20168;-87
2021/03/20 05:05:35;;;;;;;5.50;2.70;;;-0.90;77.50;;;;;;5036663;28;20234;-86
2021/03/20 05:08:12;;;;;;;4.27;2.60;;;-0.90;77.80;;;;;;5036730;28;20221;-86
2021/03/20 05:10:56;;;;;;;7.43;3.20;;;-0.80;78.30;;;;;;5054490;28;20196;-86
2021/03/20 05:13:41;;;;;;;10.23;3.27;;;-0.80;78.60;;;;;;5036872;28;20172;-86
2021/03/20 05:16:30;;;;;;;7.00;2.63;;;-0.80;78.60;;;;;;5054337;28;20172;-86
2021/03/20 05:18:56;;;;;;;7.83;3.03;;;-0.80;77.80;;;;;;5036666;28;20247;-86
2021/03/20 05:21:32;;;;;;;14.77;2.97;;;-0.80;77.70;;;;;;5054256;28;20207;-86
2021/03/20 05:24:05;;;;;;;8.57;3.03;;;-0.80;77.10;;;;;;5036306;28;20253;-86
2021/03/20 05:26:38;;;;;;;11.43;3.93;;;-0.80;77.30;;;;;;5054213;28;20662;-86
2021/03/20 05:29:12;;;;;;;8.23;2.40;;;-0.80;77.80;;;;;;5036342;28;20740;-86
2021/03/20 05:31:47;;;;;;;6.17;3.33;;;-0.80;78.40;;;;;;5036199;28;20176;-86
2021/03/20 05:34:31;;;;;;;3.27;1.80;;;-0.70;78.30;;;;;;5054624;28;20163;-86
2021/03/20 05:37:04;;;;;;;5.80;2.37;;;-0.70;76.20;;;;;;5054057;28;20172;-86
2021/03/20 05:39:34;;;;;;;4.67;2.40;;;-0.70;75.80;;;;;;5035988;28;20254;-86
2021/03/20 05:42:34;;;;;;;7.53;2.50;;;-0.70;75.20;;;;;;5053934;28;20227;-86
2021/03/20 05:45:10;;;;;;;4.80;2.60;;;-0.60;75.90;;;;;;5053784;28;20196;-86
2021/03/20 05:48:14;;;;;;;5.33;2.67;;;-0.60;75.40;;;;;;5035642;28;20632;-86
2021/03/20 05:51:03;;;;;;;6.13;2.60;;;-0.60;75.30;;;;;;5054132;28;20171;-86
2021/03/20 05:53:46;;;;;;;6.33;2.53;;;-0.60;74.70;;;;;;5035921;28;20220;-86
2021/03/20 05:56:29;;;;;;;5.23;2.40;;;-0.60;74.90;;;;;;5035803;28;20201;-86
2021/03/20 05:59:08;;;;;;;6.50;2.80;;;-0.50;75.20;;;;;;5053466;28;20346;-86
2021/03/20 06:02:16;;;;;;;7.20;2.87;;;-0.40;75.60;;;;;;5035704;28;20175;-86
2021/03/20 06:05:08;;;;;;;6.50;2.27;;;-0.50;77.00;;;;;;5035581;28;20204;-86
2021/03/20 06:07:57;;;;;;;4.37;2.37;;;-0.60;77.00;;;;;;5036375;28;20569;-86
2021/03/20 06:10:34;;;;;;;5.93;2.33;;;-0.60;77.00;;;;;;5035371;28;20200;-86
2021/03/20 06:13:16;;;;;;;5.43;2.73;;;-0.60;75.40;;;;;;5053272;28;20167;-86
2021/03/20 06:16:10;;;;;;;4.00;2.50;;;-0.60;75.40;;;;;;5035607;28;20174;-86
2021/03/20 06:18:59;;;;;;;4.40;2.60;;;-0.50;75.20;;;;;;5035342;28;20197;-85
2021/03/20 06:21:53;;;;;;;4.57;2.80;;;-0.50;75.30;;;;;;5036600;28;20255;-86
2021/03/20 06:25:00;;;;;;;5.77;2.87;;;-0.50;75.40;;;;;;5053225;28;20225;-86
2021/03/20 06:27:42;;;;;;;3.50;2.50;;;-0.40;73.90;;;;;;5001606;28;20292;-87
2021/03/20 06:30:09;;;;;;;9.20;3.20;;;-0.40;74.70;;;;;;5035783;28;20561;-86
2021/03/20 06:32:44;;;;;;;7.43;3.23;;;-0.40;74.50;;;;;;5053077;28;20172;-86
2021/03/20 06:35:17;;;;;;;4.77;2.83;;;-0.30;75.10;;;;;;5035130;28;20205;-86
2021/03/20 06:38:01;;;;;;;13.00;3.37;;;-0.30;75.40;;;;;;5053114;28;20168;-86
2021/03/20 06:40:30;;;;;;;7.27;2.70;;;-0.30;75.50;;;;;;5035162;28;20201;-86
2021/03/20 06:43:03;;;;;;;10.00;2.57;;;-0.30;75.40;;;;;;5035092;28;20175;-86
2021/03/20 06:45:34;;;;;;;10.07;3.23;;;-0.20;76.10;;;;;;5035057;28;20235;-86
2021/03/20 06:48:18;;;;;;;8.53;2.60;;;-0.10;76.40;;;;;;5035116;28;20546;-86
2021/03/20 06:50:56;;;;;;;11.00;3.37;;;-0.10;76.00;;;;;;5034993;28;20178;-86
2021/03/20 06:53:52;;;;;;;9.43;3.00;;;-0.10;74.90;;;;;;5035172;28;20235;-86
2021/03/20 06:56:20;;;;;;;8.77;2.70;;;-0.10;75.20;;;;;;5052980;28;20514;-86
2021/03/20 06:58:57;;;;;;;8.00;3.03;;;-0.10;74.90;;;;;;5053118;28;20235;-85
2021/03/20 07:01:39;;;;;;;5.77;2.37;;;0.00;75.30;;;;;;5039280;28;20181;-86
2021/03/20 07:04:32;;;;;;;6.23;2.70;;;0.00;75.60;;;;;;5056878;28;20173;-86
2021/03/20 07:07:17;;;;;;;3.50;2.23;;;0.00;75.10;;;;;;5039009;28;20266;-86
2021/03/20 07:09:49;;;;;;;2.77;2.07;;;0.00;73.90;;;;;;5057133;28;20201;-86
2021/03/20 07:12:20;;;;;;;3.67;2.53;;;0.00;73.00;;;;;;5056852;28;20179;-86
2021/03/20 07:14:58;;;;;;;6.00;2.17;;;0.00;72.90;;;;;;5038721;28;20201;-85
2021/03/20 07:17:37;;;;;;;9.17;2.03;;;0.00;72.90;;;;;;5038828;28;20172;-86
2021/03/20 07:20:23;;;;;;;3.67;1.97;;;0.00;73.10;;;;;;5039027;28;20653;-85
2021/03/20 07:23:13;;;;;;;3.13;1.93;;;0.10;73.50;;;;;;5038920;28;20203;-85
2021/03/20 07:25:52;;;;;;;6.53;2.27;;;0.10;72.90;;;;;;5038518;28;20679;-85
2021/03/20 07:28:32;;;;;;;6.07;2.40;;;0.10;72.80;;;;;;5038451;28;20170;-85
2021/03/20 07:31:14;;;;;;;3.90;2.13;;;0.10;72.00;;;;;;5056452;28;20179;-85
2021/03/20 07:33:54;;;;;;;3.13;2.20;;;0.20;72.60;;;;;;5056791;28;20197;-85
2021/03/20 07:36:35;;;;;;;5.83;1.77;;;0.20;72.60;;;;;;5038349;28;20171;-85
2021/03/20 07:39:24;;;;;;;5.17;2.50;;;0.20;72.10;;;;;;5038291;28;20199;-85
2021/03/20 07:42:06;;;;;;;6.47;3.00;;;0.30;73.00;;;;;;5056472;28;20239;-86
2021/03/20 07:44:58;;;;;;;5.70;2.23;;;0.30;71.80;;;;;;5056175;28;20174;-86
2021/03/20 07:47:32;;;;;;;2.23;1.97;;;0.30;71.60;;;;;;5038354;28;20202;-85
2021/03/20 07:50:25;;;;;;;3.30;2.20;;;0.30;71.80;;;;;;5038035;28;20207;-85
2021/03/20 07:53:15;;;;;;;3.80;2.00;;;0.40;72.00;;;;;;5037917;28;20181;-85
2021/03/20 07:56:14;;;;;;;1.80;1.53;;;0.40;72.00;;;;;;5055938;28;20176;-85
2021/03/20 07:58:53;;;;;;;2.53;1.77;;;0.50;72.00;;;;;;5055555;28;20713;-85
2021/03/20 08:01:26;;;;;;;3.80;1.90;;;0.60;71.30;;;;;;5038736;28;20165;-86
2021/03/20 08:04:03;;;;;;;6.30;2.53;;;0.60;71.40;;;;;;5037937;28;20186;-85
2021/03/20 08:06:34;;;;;;;8.00;2.30;;;0.70;71.60;;;;;;5037831;28;20180;-85
2021/03/20 08:09:24;;;;;;;5.17;2.00;;;0.80;71.30;;;;;;5037730;28;20208;-86
2021/03/20 08:11:58;;;;;;;3.83;2.40;;;0.80;71.00;;;;;;5037559;28;20176;-86
2021/03/20 08:14:37;;;;;;;12.47;2.57;;;1.00;71.40;;;;;;5037666;28;20281;-85
2021/03/20 08:17:13;;;;;;;4.43;2.43;;;1.00;71.30;;;;;;5055415;28;20171;-85
2021/03/20 08:19:47;;;;;;;6.30;2.77;;;1.10;71.20;;;;;;5037552;28;20228;-85
2021/03/20 08:22:44;;;;;;;3.30;2.03;;;1.10;71.00;;;;;;5055661;28;20159;-85
2021/03/20 08:25:45;;;;;;;1.43;1.33;;;1.10;70.50;;;;;;5055403;28;20257;-85
2021/03/20 08:28:40;;;;;;;6.93;2.37;;;1.00;70.10;;;;;;5055517;28;20177;-85
2021/03/20 08:31:42;;;;;;;6.40;2.70;;;1.20;71.20;;;;;;5055475;28;20185;-85
2021/03/20 08:34:27;;;;;;;7.67;2.73;;;1.30;70.60;;;;;;5055135;28;20196;-86
2021/03/20 08:37:15;;;;;;;7.83;2.27;;;1.30;70.40;;;;;;5037297;28;20651;-86
2021/03/20 08:40:04;;;;;;;6.17;2.20;;;1.30;69.30;;;;;;5037250;28;20567;-86
2021/03/20 08:42:44;;;;;;;5.37;2.17;;;1.30;68.30;;;;;;5037582;28;20245;-86
2021/03/20 08:45:18;;;;;;;5.23;2.20;;;1.30;67.80;;;;;;5054988;28;20168;-86
2021/03/20 08:47:56;;;;;;;9.13;2.40;;;1.30;67.80;;;;;;5037183;28;20636;-86
2021/03/20 08:50:36;;;;;;;3.37;1.90;;;1.50;66.90;;;;;;5054853;28;20664;-86
2021/03/20 08:53:35;;;;;;;3.57;1.83;;;1.40;66.20;;;;;;5037026;28;20195;-86
2021/03/20 08:56:25;;;;;;;4.10;1.63;;;1.60;68.10;;;;;;5054833;28;20180;-86
2021/03/20 08:58:59;;;;;;;4.33;2.27;;;1.70;67.20;;;;;;5054849;28;20256;-85
2021/03/20 09:01:43;;;;;;;2.07;1.77;;;1.80;65.90;;;;;;5055208;28;20251;-85
2021/03/20 09:04:25;;;;;;;8.60;2.73;;;1.80;64.70;;;;;;5055271;28;20152;-85
2021/03/20 09:07:18;;;;;;;2.93;1.90;;;1.90;65.90;;;;;;5037024;28;20204;-85
2021/03/20 09:09:51;;;;;;;2.60;1.93;;;2.00;67.00;;;;;;5055080;28;20206;-86
2021/03/20 09:12:31;;;;;;;4.70;2.30;;;2.10;67.10;;;;;;5037221;28;20229;-86
2021/03/20 09:14:57;;;;;;;4.00;2.13;;;2.00;65.00;;;;;;5037252;28;20204;-85
2021/03/20 09:17:33;;;;;;;4.40;2.47;;;2.10;66.00;;;;;;5037437;28;20207;-86
2021/03/20 09:20:13;;;;;;;4.53;2.10;;;2.10;66.70;;;;;;5054670;28;20188;-85
2021/03/20 09:22:50;;;;;;;3.43;1.73;;;2.20;65.90;;;;;;5053950;28;20196;-86
2021/03/20 09:25:31;;;;;;;7.30;2.43;;;2.20;64.90;;;;;;5054405;28;20148;-86
2021/03/20 09:28:27;;;;;;;3.17;1.80;;;2.30;65.40;;;;;;5036418;28;20187;-86
2021/03/20 09:31:01;;;;;;;5.70;2.47;;;2.30;64.80;;;;;;5054281;28;20170;-86
2021/03/20 09:33:36;;;;;;;2.47;1.90;;;2.30;66.80;;;;;;5054410;28;20202;-86
2021/03/20 09:36:05;;;;;;;6.80;2.70;;;2.30;65.20;;;;;;5036322;28;20231;-85
2021/03/20 09:38:35;;;;;;;5.13;2.10;;;2.40;64.80;;;;;;5035981;28;20178;-86
2021/03/20 09:41:19;;;;;;;5.67;2.53;;;2.50;65.20;;;;;;5036140;28;20179;-86
2021/03/20 09:43:54;;;;;;;4.63;2.50;;;2.50;64.90;;;;;;5036279;28;20532;-86
2021/03/20 09:46:44;;;;;;;3.97;2.63;;;2.50;65.90;;;;;;5053962;28;20263;-86
2021/03/20 09:49:16;;;;;;;4.87;2.73;;;2.50;65.00;;;;;;5054021;28;20193;-86
2021/03/20 09:51:52;;;;;;;4.40;2.67;;;2.50;65.70;;;;;;5036099;28;20595;-86
2021/03/20 09:54:35;;;;;;;4.03;2.87;;;2.50;65.40;;;;;;5035904;28;20230;-86
2021/03/20 09:57:22;;;;;;;10.03;3.17;;;2.50;65.40;;;;;;5036030;28;20222;-86
2021/03/20 09:59:57;;;;;;;5.40;2.93;;;2.70;67.00;;;;;;5035859;28;20710;-86
2021/03/20 10:02:28;;;;;;;5.00;3.43;;;2.60;65.20;;;;;;5036147;28;20168;-86
2021/03/20 10:05:04;;;;;;;5.37;3.57;;;2.70;66.40;;;;;;5057228;23;20232;-80
2021/03/20 10:07:35;;;;;;;4.80;2.93;;;2.70;67.20;;;;;;5053960;28;20188;-80
2021/03/20 10:10:14;;;;;;;2.40;2.10;;;2.80;66.70;;;;;;5054098;28;20168;-79
2021/03/20 10:12:44;;;;;;;3.93;2.90;;;2.70;67.10;;;;;;5054040;28;20172;-79
2021/03/20 10:15:16;;;;;;;3.87;3.10;;;2.80;67.60;;;;;;5053782;28;20208;-80
2021/03/20 10:18:01;;;;;;;5.23;3.03;;;2.90;67.10;;;;;;5035893;28;20163;-80
2021/03/20 10:20:52;;;;;;;4.20;2.67;;;3.10;67.10;;;;;;5053991;28;20253;-79
2021/03/20 10:23:29;;;;;;;4.03;3.10;;;3.10;67.30;;;;;;5036557;28;20172;-80
2021/03/20 10:26:02;;;;;;;4.57;3.30;;;3.20;67.00;;;;;;5055506;28;20195;-80
2021/03/20 10:28:42;;;;;;;5.73;3.57;;;3.30;66.90;;;;;;5036991;28;20178;-80
2021/03/20 10:31:17;;;;;;;5.50;3.87;;;3.30;68.70;;;;;;5054563;28;20704;-80
2021/03/20 10:34:04;;;;;;;4.53;3.03;;;3.50;68.30;;;;;;5035372;28;20193;-79
2021/03/20 10:36:43;;;;;;;5.80;3.80;;;3.50;68.40;;;;;;5054776;28;20184;-80
2021/03/20 10:39:33;;;;;;;6.00;3.47;;;3.40;67.30;;;;;;5036245;28;20201;-80
2021/03/20 10:42:04;;;;;;;5.33;3.67;;;3.70;67.90;;;;;;5037733;28;20168;-80
2021/03/20 10:44:44;;;;;;;5.43;3.57;;;3.90;67.60;;;;;;5054878;28;20568;-80
2021/03/20 10:47:21;;;;;;;7.50;3.27;;;3.80;67.60;;;;;;5054391;28;20182;-80
2021/03/20 10:50:20;;;;;;;9.17;4.33;;;3.90;67.20;;;;;;5037066;28;20176;-79
2021/03/20 10:52:58;;;;;;;6.37;3.87;;;3.80;67.90;;;;;;5054300;28;20217;-80
2021/03/20 10:55:38;;;;;;;7.03;4.03;;;3.90;67.70;;;;;;5054654;28;20718;-80
2021/03/20 10:58:14;;;;;;;3.67;3.10;;;4.00;68.70;;;;;;5037289;28;20240;-80
2021/03/20 11:00:45;;;;;;;5.23;3.83;;;4.20;68.20;;;;;;5055028;28;20264;-80
2021/03/20 11:03:21;;;;;;;4.83;3.87;;;4.20;67.60;;;;;;5054688;28;20205;-80
2021/03/20 11:05:52;;;;;;;6.43;4.10;;;4.20;68.50;;;;;;5054521;28;20586;-80
2021/03/20 11:08:28;;;;;;;16.83;4.63;;;4.30;69.80;;;;;;5054483;28;20175;-80
2021/03/20 11:11:17;;;;;;;7.53;3.67;;;4.30;69.80;;;;;;5054468;28;20216;-80
2021/03/20 11:13:53;;;;;;;9.83;4.60;;;4.40;68.70;;;;;;5054371;28;20195;-80
2021/03/20 11:16:27;;;;;;;9.47;4.13;;;4.60;70.50;;;;;;5055326;28;20162;-81
2021/03/20 11:19:22;;;;;;;7.10;3.93;;;4.70;70.80;;;;;;5055567;28;20238;-80
2021/03/20 11:21:59;;;;;;;8.87;5.20;;;4.80;69.90;;;;;;5032144;28;20183;-80
2021/03/20 11:24:36;;;;;;;6.07;4.03;;;4.90;70.90;;;;;;5056145;28;20191;-80
2021/03/20 11:27:20;;;;;;;8.63;5.47;;;4.80;69.80;;;;;;5055791;28;20638;-80
2021/03/20 11:29:58;;;;;;;5.20;3.93;;;4.90;69.10;;;;;;5055486;28;20233;-80
2021/03/20 11:32:28;;;;;;;6.97;4.87;;;4.80;70.10;;;;;;5037046;28;20636;-80
2021/03/20 11:35:25;;;;;;;8.47;5.77;;;4.90;69.90;;;;;;5054614;28;20210;-80
2021/03/20 11:38:02;;;;;;;6.60;4.43;;;5.00;71.00;;;;;;5036970;28;20172;-80
2021/03/20 11:40:36;;;;;;;5.63;3.93;;;5.00;69.40;;;;;;5036907;28;20171;-80
2021/03/20 11:43:06;;;;;;;7.00;5.33;;;5.00;71.30;;;;;;5055884;28;20159;-80
2021/03/20 11:45:39;;;;;;;7.93;5.30;;;5.10;70.40;;;;;;5039389;28;20196;-80
2021/03/20 11:48:42;;;;;;;8.60;5.93;;;5.30;71.10;;;;;;5041394;28;20644;-80
2021/03/20 11:51:20;;;;;;;8.23;5.43;;;5.30;71.60;;;;;;5058912;28;20207;-80
2021/03/20 11:53:49;;;;;;;12.13;4.83;;;5.30;70.60;;;;;;5042716;28;20667;-80
2021/03/20 11:56:31;;;;;;;8.57;5.50;;;5.10;71.40;;;;;;5059303;28;20168;-80
2021/03/20 11:59:00;;;;;;;7.50;4.70;;;5.10;71.60;;;;;;5040766;28;20191;-81
2021/03/20 12:01:33;;;;;;;6.27;5.00;;;5.20;71.90;;;;;;5059328;28;20247;-80
2021/03/20 12:04:10;;;;;;;6.37;4.80;;;5.20;71.60;;;;;;5040588;28;20261;-81
2021/03/20 12:06:37;;;;;;;8.33;5.63;;;5.30;71.90;;;;;;5040508;28;20648;-80
2021/03/20 12:09:24;;;;;;;7.57;5.77;;;5.30;72.20;;;;;;5058351;28;20153;-80
2021/03/20 12:11:52;;;;;;;9.07;5.67;;;5.20;71.50;;;;;;5040338;28;20175;-80
2021/03/20 12:14:43;;;;;;;7.40;5.47;;;5.00;71.70;;;;;;5057903;28;20234;-80
2021/03/20 12:17:10;;;;;;;6.03;5.00;;;5.00;72.70;;;;;;5058011;28;20160;-80
2021/03/20 12:19:58;;;;;;;8.87;5.67;;;5.00;72.40;;;;;;5039807;28;20199;-80
2021/03/20 12:22:38;;;;;;;7.67;5.90;;;5.10;73.20;;;;;;5040357;28;20246;-80
2021/03/20 12:25:32;;;;;;;14.20;5.77;;;5.10;73.40;;;;;;5039976;28;20209;-80
2021/03/20 12:28:18;;;;;;;13.87;5.70;;;5.10;73.10;;;;;;5040464;28;20271;-80
2021/03/20 12:30:46;;;;;;;6.23;5.10;;;5.10;73.60;;;;;;5058275;28;20176;-80
2021/03/20 12:33:22;;;;;;;9.40;5.60;;;5.20;74.20;;;;;;5039959;28;20205;-80
2021/03/20 12:35:51;;;;;;;5.53;5.03;;;5.10;73.30;;;;;;5057502;28;20191;-81
2021/03/20 12:38:28;;;;;;;7.80;5.83;;;5.30;73.10;;;;;;5040483;28;20176;-80
2021/03/20 12:40:58;;;;;;;8.87;5.70;;;5.20;73.60;;;;;;5058632;28;20204;-81
2021/03/20 12:43:37;;;;;;;8.03;5.43;;;5.10;73.90;;;;;;5039987;28;20229;-80
2021/03/20 12:46:08;;;;;;;8.53;5.70;;;5.10;73.30;;;;;;5057772;28;20183;-81
2021/03/20 12:48:41;;;;;;;9.73;5.83;;;5.10;73.90;;;;;;5057786;28;20167;-80
2021/03/20 12:51:24;;;;;;;7.33;5.10;;;5.10;73.20;;;;;;5059018;28;20168;-80
2021/03/20 12:54:01;;;;;;;12.83;5.70;;;5.10;72.90;;;;;;5040702;28;20211;-80
2021/03/20 12:56:34;;;;;;;9.60;5.93;;;5.20;73.70;;;;;;5059562;28;20171;-81
2021/03/20 12:59:07;;;;;;;6.47;5.47;;;5.20;73.90;;;;;;5063356;28;20164;-80
2021/03/20 13:01:33;;;;;;;9.67;5.80;;;5.30;73.70;;;;;;5042956;28;20176;-81
2021/03/20 13:03:59;;;;;;;7.90;7.00;;;5.30;74.40;;;;;;5039568;28;20236;-80
2021/03/20 13:06:27;;;;;;;9.93;6.07;;;5.30;73.40;;;;;;5057306;28;20241;-81
2021/03/20 13:08:53;;;;;;;5.40;4.73;;;5.40;73.60;;;;;;5040104;28;20652;-80
2021/03/20 13:11:25;;;;;;;8.37;5.00;;;5.40;72.80;;;;;;5058309;28;20183;-82
2021/03/20 13:13:51;;;;;;;13.67;6.50;;;5.30;72.50;;;;;;5039215;28;20215;-81
2021/03/20 13:16:18;;;;;;;9.17;5.67;;;5.40;73.90;;;;;;5039861;28;20176;-79
2021/03/20 13:18:46;;;;;;;8.83;5.83;;;5.40;73.30;;;;;;5039512;28;20259;-81
2021/03/20 13:21:16;;;;;;;9.87;6.20;;;5.40;74.10;;;;;;5040470;28;20172;-80
2021/03/20 13:23:46;;;;;;;7.50;4.70;;;5.40;73.70;;;;;;5040706;28;20176;-80
2021/03/20 13:26:23;;;;;;;7.27;5.80;;;5.40;74.90;;;;;;5059620;28;20172;-80
2021/03/20 13:28:54;;;;;;;8.43;5.03;;;5.40;73.90;;;;;;5058048;28;20666;-81
2021/03/20 13:31:29;;;;;;;11.73;6.57;;;5.50;74.90;;;;;;5058509;28;20253;-81
2021/03/20 13:34:01;;;;;;;10.70;6.63;;;5.50;74.80;;;;;;5057707;28;20269;-80
2021/03/20 13:36:33;;;;;;;6.77;6.03;;;5.50;75.80;;;;;;5040591;28;20168;-80
2021/03/20 13:39:03;;;;;;;9.10;5.67;;;5.50;77.10;;;;;;5040494;28;20169;-80
2021/03/20 13:41:34;;;;;;;8.90;5.67;;;5.40;76.70;;;;;;5058272;28;20522;-80
2021/03/20 13:44:03;;;;;;;8.83;7.30;;;5.30;77.90;;;;;;5039956;28;20257;-80
2021/03/20 13:46:36;;;;;;;6.33;5.13;;;5.40;78.70;;;;;;5058651;28;20194;-80
2021/03/20 13:49:10;;;;;;;7.10;6.40;;;5.40;78.20;;;;;;5040736;28;20176;-80
2021/03/20 13:51:41;;;;;;;12.40;7.97;;;5.30;79.80;;;;;;5058535;28;20159;-80
2021/03/20 13:54:17;;;;;;;9.57;7.93;;;5.30;80.40;;;;;;5057865;28;20230;-80